sensor_id;sensor_type;location;lat;lon;timestamp;P1;durP1;ratioP1;P2;durP2;ratioP2
35693;SDS011;21812;55.536;37.664;2022-11-20T00:01:06;8.20;;;5.63;;
35693;SDS011;21812;55.536;37.664;2022-11-20T00:03:34;10.70;;;4.97;;
35693;SDS011;21812;55.536;37.664;2022-11-20T00:06:07;7.73;;;5.67;;
35693;SDS011;21812;55.536;37.664;2022-11-20T00:08:35;8.00;;;5.40;;
35693;SDS011;21812;55.536;37.664;2022-11-20T00:13:31;8.83;;;5.57;;
35693;SDS011;21812;55.536;37.664;2022-11-20T00:16:01;11.47;;;6.07;;
35693;SDS011;21812;55.536;37.664;2022-11-20T00:18:28;10.37;;;4.93;;
35693;SDS011;21812;55.536;37.664;2022-11-20T00:21:00;8.20;;;5.17;;
35693;SDS011;21812;55.536;37.664;2022-11-20T00:23:27;7.47;;;5.50;;
35693;SDS011;21812;55.536;37.664;2022-11-20T00:25:52;7.13;;;5.27;;
35693;SDS011;21812;55.536;37.664;2022-11-20T00:28:18;9.23;;;5.80;;
35693;SDS011;21812;55.536;37.664;2022-11-20T00:30:44;10.00;;;5.90;;
35693;SDS011;21812;55.536;37.664;2022-11-20T00:33:09;8.30;;;5.37;;
35693;SDS011;21812;55.536;37.664;2022-11-20T00:35:35;11.43;;;6.30;;
35693;SDS011;21812;55.536;37.664;2022-11-20T00:38:01;9.20;;;5.93;;
35693;SDS011;21812;55.536;37.664;2022-11-20T00:40:26;7.83;;;5.63;;
35693;SDS011;21812;55.536;37.664;2022-11-20T00:42:52;8.60;;;4.90;;
35693;SDS011;21812;55.536;37.664;2022-11-20T00:45:17;8.40;;;6.37;;
35693;SDS011;21812;55.536;37.664;2022-11-20T00:47:43;10.07;;;6.17;;
35693;SDS011;21812;55.536;37.664;2022-11-20T00:50:09;8.43;;;5.07;;
35693;SDS011;21812;55.536;37.664;2022-11-20T00:52:34;9.13;;;6.90;;
35693;SDS011;21812;55.536;37.664;2022-11-20T00:55:00;9.80;;;5.63;;
35693;SDS011;21812;55.536;37.664;2022-11-20T00:57:25;9.03;;;6.30;;
35693;SDS011;21812;55.536;37.664;2022-11-20T00:59:53;9.40;;;6.10;;
35693;SDS011;21812;55.536;37.664;2022-11-20T01:02:19;9.10;;;6.33;;
35693;SDS011;21812;55.536;37.664;2022-11-20T01:04:45;9.17;;;7.00;;
35693;SDS011;21812;55.536;37.664;2022-11-20T01:07:10;10.07;;;6.80;;
35693;SDS011;21812;55.536;37.664;2022-11-20T01:09:36;12.00;;;6.60;;
35693;SDS011;21812;55.536;37.664;2022-11-20T01:12:02;9.47;;;6.97;;
35693;SDS011;21812;55.536;37.664;2022-11-20T01:14:27;9.13;;;6.43;;
35693;SDS011;21812;55.536;37.664;2022-11-20T01:16:53;10.33;;;6.67;;
35693;SDS011;21812;55.536;37.664;2022-11-20T01:19:22;8.67;;;5.77;;
35693;SDS011;21812;55.536;37.664;2022-11-20T01:21:50;10.90;;;6.20;;
35693;SDS011;21812;55.536;37.664;2022-11-20T01:24:17;9.03;;;6.80;;
35693;SDS011;21812;55.536;37.664;2022-11-20T01:26:45;11.03;;;6.93;;
35693;SDS011;21812;55.536;37.664;2022-11-20T01:29:14;11.03;;;7.37;;
35693;SDS011;21812;55.536;37.664;2022-11-20T01:31:42;11.17;;;6.57;;
35693;SDS011;21812;55.536;37.664;2022-11-20T01:34:10;10.30;;;7.30;;
35693;SDS011;21812;55.536;37.664;2022-11-20T01:36:37;11.27;;;6.57;;
35693;SDS011;21812;55.536;37.664;2022-11-20T01:39:05;12.00;;;7.03;;
35693;SDS011;21812;55.536;37.664;2022-11-20T01:41:33;10.30;;;6.90;;
35693;SDS011;21812;55.536;37.664;2022-11-20T01:44:19;13.67;;;6.60;;
35693;SDS011;21812;55.536;37.664;2022-11-20T01:46:55;11.80;;;7.80;;
35693;SDS011;21812;55.536;37.664;2022-11-20T01:49:43;11.65;;;7.78;;
35693;SDS011;21812;55.536;37.664;2022-11-20T01:54:49;9.57;;;6.47;;
35693;SDS011;21812;55.536;37.664;2022-11-20T01:57:20;7.35;;;5.53;;
35693;SDS011;21812;55.536;37.664;2022-11-20T01:59:50;10.60;;;6.53;;
35693;SDS011;21812;55.536;37.664;2022-11-20T02:02:20;11.63;;;6.37;;
35693;SDS011;21812;55.536;37.664;2022-11-20T02:04:47;10.97;;;6.27;;
35693;SDS011;21812;55.536;37.664;2022-11-20T02:07:14;9.00;;;5.80;;
35693;SDS011;21812;55.536;37.664;2022-11-20T02:09:40;8.33;;;5.90;;
35693;SDS011;21812;55.536;37.664;2022-11-20T02:12:06;7.97;;;5.50;;
35693;SDS011;21812;55.536;37.664;2022-11-20T02:14:52;7.97;;;5.70;;
35693;SDS011;21812;55.536;37.664;2022-11-20T02:17:18;9.37;;;5.40;;
35693;SDS011;21812;55.536;37.664;2022-11-20T02:19:43;8.13;;;5.33;;
35693;SDS011;21812;55.536;37.664;2022-11-20T02:22:14;10.60;;;6.40;;
35693;SDS011;21812;55.536;37.664;2022-11-20T02:24:47;9.17;;;5.63;;
35693;SDS011;21812;55.536;37.664;2022-11-20T02:27:15;7.53;;;6.33;;
35693;SDS011;21812;55.536;37.664;2022-11-20T02:29:53;7.17;;;5.13;;
35693;SDS011;21812;55.536;37.664;2022-11-20T02:34:51;7.53;;;5.23;;
35693;SDS011;21812;55.536;37.664;2022-11-20T02:37:17;8.53;;;5.10;;
35693;SDS011;21812;55.536;37.664;2022-11-20T02:39:45;9.50;;;5.33;;
35693;SDS011;21812;55.536;37.664;2022-11-20T02:42:12;8.27;;;5.60;;
35693;SDS011;21812;55.536;37.664;2022-11-20T02:44:37;6.97;;;4.93;;
35693;SDS011;21812;55.536;37.664;2022-11-20T02:47:03;9.50;;;5.63;;
35693;SDS011;21812;55.536;37.664;2022-11-20T02:49:29;6.97;;;4.40;;
35693;SDS011;21812;55.536;37.664;2022-11-20T02:51:54;7.33;;;4.83;;
35693;SDS011;21812;55.536;37.664;2022-11-20T02:54:20;9.10;;;5.43;;
35693;SDS011;21812;55.536;37.664;2022-11-20T02:56:46;7.83;;;5.57;;
35693;SDS011;21812;55.536;37.664;2022-11-20T02:59:11;8.83;;;5.63;;
35693;SDS011;21812;55.536;37.664;2022-11-20T03:01:37;11.90;;;5.30;;
35693;SDS011;21812;55.536;37.664;2022-11-20T03:04:02;7.47;;;5.17;;
35693;SDS011;21812;55.536;37.664;2022-11-20T03:06:28;9.73;;;6.23;;
35693;SDS011;21812;55.536;37.664;2022-11-20T03:08:54;7.73;;;5.03;;
35693;SDS011;21812;55.536;37.664;2022-11-20T03:11:19;7.20;;;5.00;;
35693;SDS011;21812;55.536;37.664;2022-11-20T03:13:45;10.03;;;5.13;;
35693;SDS011;21812;55.536;37.664;2022-11-20T03:16:19;8.67;;;5.63;;
35693;SDS011;21812;55.536;37.664;2022-11-20T03:18:49;8.10;;;5.63;;
35693;SDS011;21812;55.536;37.664;2022-11-20T03:21:16;6.73;;;4.83;;
35693;SDS011;21812;55.536;37.664;2022-11-20T03:23:42;7.18;;;5.68;;
35693;SDS011;21812;55.536;37.664;2022-11-20T03:26:12;7.33;;;5.23;;
35693;SDS011;21812;55.536;37.664;2022-11-20T03:29:02;9.32;;;5.10;;
35693;SDS011;21812;55.536;37.664;2022-11-20T03:31:32;7.77;;;4.70;;
35693;SDS011;21812;55.536;37.664;2022-11-20T03:33:59;6.23;;;4.47;;
35693;SDS011;21812;55.536;37.664;2022-11-20T03:36:26;11.17;;;5.73;;
35693;SDS011;21812;55.536;37.664;2022-11-20T03:38:53;7.33;;;4.93;;
35693;SDS011;21812;55.536;37.664;2022-11-20T03:41:21;6.50;;;5.30;;
35693;SDS011;21812;55.536;37.664;2022-11-20T03:43:53;9.40;;;5.77;;
35693;SDS011;21812;55.536;37.664;2022-11-20T03:46:21;8.70;;;5.23;;
35693;SDS011;21812;55.536;37.664;2022-11-20T03:48:47;8.03;;;5.47;;
35693;SDS011;21812;55.536;37.664;2022-11-20T03:51:14;8.83;;;5.23;;
35693;SDS011;21812;55.536;37.664;2022-11-20T03:53:42;8.17;;;5.50;;
35693;SDS011;21812;55.536;37.664;2022-11-20T03:56:09;8.67;;;5.20;;
35693;SDS011;21812;55.536;37.664;2022-11-20T03:58:37;6.18;;;4.57;;
35693;SDS011;21812;55.536;37.664;2022-11-20T04:01:15;11.07;;;5.60;;
35693;SDS011;21812;55.536;37.664;2022-11-20T04:03:43;9.07;;;5.53;;
35693;SDS011;21812;55.536;37.664;2022-11-20T04:06:10;8.73;;;5.33;;
35693;SDS011;21812;55.536;37.664;2022-11-20T04:08:37;9.90;;;5.57;;
35693;SDS011;21812;55.536;37.664;2022-11-20T04:11:15;7.68;;;5.20;;
35693;SDS011;21812;55.536;37.664;2022-11-20T04:13:46;8.33;;;5.87;;
35693;SDS011;21812;55.536;37.664;2022-11-20T04:16:13;7.90;;;5.43;;
35693;SDS011;21812;55.536;37.664;2022-11-20T04:18:40;10.43;;;6.00;;
35693;SDS011;21812;55.536;37.664;2022-11-20T04:21:05;7.63;;;5.23;;
35693;SDS011;21812;55.536;37.664;2022-11-20T04:23:31;10.43;;;6.07;;
35693;SDS011;21812;55.536;37.664;2022-11-20T04:26:31;9.80;;;5.97;;
35693;SDS011;21812;55.536;37.664;2022-11-20T04:28:51;8.63;;;5.53;;
35693;SDS011;21812;55.536;37.664;2022-11-20T04:31:21;8.90;;;5.87;;
35693;SDS011;21812;55.536;37.664;2022-11-20T04:36:17;10.87;;;6.83;;
35693;SDS011;21812;55.536;37.664;2022-11-20T04:38:50;8.93;;;5.50;;
35693;SDS011;21812;55.536;37.664;2022-11-20T04:41:20;12.00;;;6.90;;
35693;SDS011;21812;55.536;37.664;2022-11-20T04:43:47;12.33;;;7.03;;
35693;SDS011;21812;55.536;37.664;2022-11-20T04:46:18;10.87;;;6.57;;
35693;SDS011;21812;55.536;37.664;2022-11-20T04:48:45;9.97;;;6.37;;
35693;SDS011;21812;55.536;37.664;2022-11-20T04:51:11;9.40;;;6.13;;
35693;SDS011;21812;55.536;37.664;2022-11-20T04:53:37;10.20;;;6.33;;
35693;SDS011;21812;55.536;37.664;2022-11-20T04:56:04;10.50;;;6.60;;
35693;SDS011;21812;55.536;37.664;2022-11-20T04:58:31;12.37;;;6.50;;
35693;SDS011;21812;55.536;37.664;2022-11-20T05:01:00;12.90;;;6.70;;
35693;SDS011;21812;55.536;37.664;2022-11-20T05:03:30;9.43;;;5.10;;
35693;SDS011;21812;55.536;37.664;2022-11-20T05:05:56;11.47;;;6.63;;
35693;SDS011;21812;55.536;37.664;2022-11-20T05:08:24;10.97;;;7.00;;
35693;SDS011;21812;55.536;37.664;2022-11-20T05:10:50;10.30;;;6.93;;
35693;SDS011;21812;55.536;37.664;2022-11-20T05:13:15;9.80;;;7.33;;
35693;SDS011;21812;55.536;37.664;2022-11-20T05:15:41;11.90;;;6.93;;
35693;SDS011;21812;55.536;37.664;2022-11-20T05:18:07;11.57;;;6.07;;
35693;SDS011;21812;55.536;37.664;2022-11-20T05:20:32;11.63;;;6.47;;
35693;SDS011;21812;55.536;37.664;2022-11-20T05:22:58;9.63;;;6.17;;
35693;SDS011;21812;55.536;37.664;2022-11-20T05:25:24;11.53;;;7.17;;
35693;SDS011;21812;55.536;37.664;2022-11-20T05:27:50;10.60;;;7.07;;
35693;SDS011;21812;55.536;37.664;2022-11-20T05:30:16;10.63;;;7.03;;
35693;SDS011;21812;55.536;37.664;2022-11-20T05:32:41;10.10;;;6.87;;
35693;SDS011;21812;55.536;37.664;2022-11-20T05:35:07;18.63;;;8.30;;
35693;SDS011;21812;55.536;37.664;2022-11-20T05:37:33;13.33;;;7.10;;
35693;SDS011;21812;55.536;37.664;2022-11-20T05:39:58;12.17;;;7.43;;
35693;SDS011;21812;55.536;37.664;2022-11-20T05:42:24;10.07;;;7.10;;
35693;SDS011;21812;55.536;37.664;2022-11-20T05:44:59;12.77;;;7.40;;
35693;SDS011;21812;55.536;37.664;2022-11-20T05:47:27;14.00;;;6.97;;
35693;SDS011;21812;55.536;37.664;2022-11-20T05:49:58;10.00;;;6.57;;
35693;SDS011;21812;55.536;37.664;2022-11-20T05:52:24;9.27;;;6.33;;
35693;SDS011;21812;55.536;37.664;2022-11-20T05:54:49;11.77;;;7.40;;
35693;SDS011;21812;55.536;37.664;2022-11-20T05:57:15;10.50;;;7.30;;
35693;SDS011;21812;55.536;37.664;2022-11-20T05:59:42;11.37;;;7.10;;
35693;SDS011;21812;55.536;37.664;2022-11-20T06:02:08;12.63;;;7.33;;
35693;SDS011;21812;55.536;37.664;2022-11-20T06:04:33;11.63;;;7.23;;
35693;SDS011;21812;55.536;37.664;2022-11-20T06:06:59;11.77;;;7.30;;
35693;SDS011;21812;55.536;37.664;2022-11-20T06:09:25;11.97;;;7.30;;
35693;SDS011;21812;55.536;37.664;2022-11-20T06:11:50;10.52;;;6.25;;
35693;SDS011;21812;55.536;37.664;2022-11-20T06:14:16;13.73;;;6.97;;
35693;SDS011;21812;55.536;37.664;2022-11-20T06:16:41;14.90;;;6.37;;
35693;SDS011;21812;55.536;37.664;2022-11-20T06:19:07;13.03;;;7.47;;
35693;SDS011;21812;55.536;37.664;2022-11-20T06:21:33;11.17;;;6.63;;
35693;SDS011;21812;55.536;37.664;2022-11-20T06:23:58;11.10;;;6.87;;
35693;SDS011;21812;55.536;37.664;2022-11-20T06:26:25;7.30;;;5.73;;
35693;SDS011;21812;55.536;37.664;2022-11-20T06:28:52;10.43;;;6.27;;
35693;SDS011;21812;55.536;37.664;2022-11-20T06:31:20;10.17;;;6.87;;
35693;SDS011;21812;55.536;37.664;2022-11-20T06:33:47;10.23;;;5.97;;
35693;SDS011;21812;55.536;37.664;2022-11-20T06:36:14;12.73;;;7.00;;
35693;SDS011;21812;55.536;37.664;2022-11-20T06:38:41;10.07;;;6.57;;
35693;SDS011;21812;55.536;37.664;2022-11-20T06:41:10;9.03;;;6.37;;
35693;SDS011;21812;55.536;37.664;2022-11-20T06:43:40;13.03;;;7.20;;
35693;SDS011;21812;55.536;37.664;2022-11-20T06:46:05;8.37;;;5.63;;
35693;SDS011;21812;55.536;37.664;2022-11-20T06:48:31;9.57;;;5.93;;
35693;SDS011;21812;55.536;37.664;2022-11-20T06:50:58;13.73;;;6.70;;
35693;SDS011;21812;55.536;37.664;2022-11-20T06:53:24;12.57;;;7.57;;
35693;SDS011;21812;55.536;37.664;2022-11-20T06:55:50;9.47;;;6.43;;
35693;SDS011;21812;55.536;37.664;2022-11-20T06:58:19;8.88;;;6.00;;
35693;SDS011;21812;55.536;37.664;2022-11-20T07:00:44;16.35;;;10.10;;
35693;SDS011;21812;55.536;37.664;2022-11-20T07:03:10;12.60;;;6.63;;
35693;SDS011;21812;55.536;37.664;2022-11-20T07:05:37;10.73;;;6.20;;
35693;SDS011;21812;55.536;37.664;2022-11-20T07:08:03;12.77;;;6.70;;
35693;SDS011;21812;55.536;37.664;2022-11-20T07:10:29;12.27;;;7.30;;
35693;SDS011;21812;55.536;37.664;2022-11-20T07:12:56;11.60;;;7.47;;
35693;SDS011;21812;55.536;37.664;2022-11-20T07:15:23;11.27;;;7.17;;
35693;SDS011;21812;55.536;37.664;2022-11-20T07:17:50;10.90;;;6.97;;
35693;SDS011;21812;55.536;37.664;2022-11-20T07:20:16;13.10;;;7.17;;
35693;SDS011;21812;55.536;37.664;2022-11-20T07:22:41;10.80;;;6.93;;
35693;SDS011;21812;55.536;37.664;2022-11-20T07:25:08;11.83;;;7.37;;
35693;SDS011;21812;55.536;37.664;2022-11-20T07:27:34;11.87;;;6.97;;
35693;SDS011;21812;55.536;37.664;2022-11-20T07:30:00;11.97;;;6.97;;
35693;SDS011;21812;55.536;37.664;2022-11-20T07:32:26;9.32;;;5.97;;
35693;SDS011;21812;55.536;37.664;2022-11-20T07:34:52;14.20;;;8.10;;
35693;SDS011;21812;55.536;37.664;2022-11-20T07:37:18;14.98;;;8.35;;
35693;SDS011;21812;55.536;37.664;2022-11-20T07:39:43;14.75;;;8.73;;
35693;SDS011;21812;55.536;37.664;2022-11-20T07:42:09;14.77;;;7.63;;
35693;SDS011;21812;55.536;37.664;2022-11-20T07:44:36;13.57;;;7.22;;
35693;SDS011;21812;55.536;37.664;2022-11-20T07:47:02;13.53;;;7.17;;
35693;SDS011;21812;55.536;37.664;2022-11-20T07:49:27;15.80;;;7.47;;
35693;SDS011;21812;55.536;37.664;2022-11-20T07:51:53;14.80;;;7.85;;
35693;SDS011;21812;55.536;37.664;2022-11-20T07:54:19;12.32;;;7.50;;
35693;SDS011;21812;55.536;37.664;2022-11-20T07:56:45;14.32;;;7.65;;
35693;SDS011;21812;55.536;37.664;2022-11-20T07:59:12;13.07;;;7.80;;
35693;SDS011;21812;55.536;37.664;2022-11-20T08:01:38;13.47;;;8.03;;
35693;SDS011;21812;55.536;37.664;2022-11-20T08:04:04;21.87;;;9.63;;
35693;SDS011;21812;55.536;37.664;2022-11-20T08:06:30;12.32;;;7.72;;
35693;SDS011;21812;55.536;37.664;2022-11-20T08:08:56;14.48;;;8.48;;
35693;SDS011;21812;55.536;37.664;2022-11-20T08:11:21;17.45;;;9.63;;
35693;SDS011;21812;55.536;37.664;2022-11-20T08:14:06;16.33;;;8.40;;
35693;SDS011;21812;55.536;37.664;2022-11-20T08:16:38;16.67;;;9.43;;
35693;SDS011;21812;55.536;37.664;2022-11-20T08:19:07;18.05;;;9.20;;
35693;SDS011;21812;55.536;37.664;2022-11-20T08:21:33;17.65;;;9.05;;
35693;SDS011;21812;55.536;37.664;2022-11-20T08:23:59;18.02;;;9.73;;
35693;SDS011;21812;55.536;37.664;2022-11-20T08:26:25;17.63;;;10.52;;
35693;SDS011;21812;55.536;37.664;2022-11-20T08:28:54;16.98;;;9.95;;
35693;SDS011;21812;55.536;37.664;2022-11-20T08:31:21;17.23;;;9.57;;
35693;SDS011;21812;55.536;37.664;2022-11-20T08:33:47;16.23;;;9.23;;
35693;SDS011;21812;55.536;37.664;2022-11-20T08:36:13;17.10;;;9.80;;
35693;SDS011;21812;55.536;37.664;2022-11-20T08:38:39;14.05;;;8.77;;
35693;SDS011;21812;55.536;37.664;2022-11-20T08:41:05;16.17;;;9.65;;
35693;SDS011;21812;55.536;37.664;2022-11-20T08:44:05;19.17;;;9.82;;
35693;SDS011;21812;55.536;37.664;2022-11-20T08:46:33;19.77;;;9.52;;
35693;SDS011;21812;55.536;37.664;2022-11-20T08:48:59;22.47;;;11.47;;
35693;SDS011;21812;55.536;37.664;2022-11-20T08:51:24;22.15;;;10.90;;
35693;SDS011;21812;55.536;37.664;2022-11-20T08:53:50;16.08;;;10.10;;
35693;SDS011;21812;55.536;37.664;2022-11-20T08:56:16;22.80;;;12.47;;
35693;SDS011;21812;55.536;37.664;2022-11-20T08:58:42;18.35;;;10.35;;
35693;SDS011;21812;55.536;37.664;2022-11-20T09:01:08;22.45;;;11.65;;
35693;SDS011;21812;55.536;37.664;2022-11-20T09:03:34;18.10;;;10.77;;
35693;SDS011;21812;55.536;37.664;2022-11-20T09:06:00;21.23;;;11.43;;
35693;SDS011;21812;55.536;37.664;2022-11-20T09:08:28;22.73;;;12.18;;
35693;SDS011;21812;55.536;37.664;2022-11-20T09:10:54;20.17;;;10.63;;
35693;SDS011;21812;55.536;37.664;2022-11-20T09:13:21;17.43;;;10.40;;
35693;SDS011;21812;55.536;37.664;2022-11-20T09:15:52;20.58;;;10.13;;
35693;SDS011;21812;55.536;37.664;2022-11-20T09:18:22;21.60;;;10.05;;
35693;SDS011;21812;55.536;37.664;2022-11-20T09:20:49;18.55;;;11.00;;
35693;SDS011;21812;55.536;37.664;2022-11-20T09:23:15;17.25;;;11.05;;
35693;SDS011;21812;55.536;37.664;2022-11-20T09:25:41;21.20;;;11.18;;
35693;SDS011;21812;55.536;37.664;2022-11-20T09:28:07;20.33;;;10.52;;
35693;SDS011;21812;55.536;37.664;2022-11-20T09:30:33;21.02;;;9.57;;
35693;SDS011;21812;55.536;37.664;2022-11-20T09:32:59;18.88;;;10.50;;
35693;SDS011;21812;55.536;37.664;2022-11-20T09:35:25;23.10;;;11.60;;
35693;SDS011;21812;55.536;37.664;2022-11-20T09:37:50;16.63;;;9.77;;
35693;SDS011;21812;55.536;37.664;2022-11-20T09:40:20;20.48;;;9.65;;
35693;SDS011;21812;55.536;37.664;2022-11-20T09:42:52;20.45;;;11.65;;
35693;SDS011;21812;55.536;37.664;2022-11-20T09:53:46;19.90;;;10.63;;
35693;SDS011;21812;55.536;37.664;2022-11-20T09:56:36;19.38;;;10.73;;
35693;SDS011;21812;55.536;37.664;2022-11-20T09:59:05;32.30;;;13.02;;
35693;SDS011;21812;55.536;37.664;2022-11-20T10:01:34;23.20;;;11.75;;
35693;SDS011;21812;55.536;37.664;2022-11-20T10:04:06;22.40;;;11.52;;
35693;SDS011;21812;55.536;37.664;2022-11-20T10:11:38;25.95;;;12.45;;
35693;SDS011;21812;55.536;37.664;2022-11-20T10:17:32;32.35;;;14.75;;
35693;SDS011;21812;55.536;37.664;2022-11-20T10:25:40;20.73;;;12.15;;
35693;SDS011;21812;55.536;37.664;2022-11-20T10:30:50;28.30;;;10.75;;
35693;SDS011;21812;55.536;37.664;2022-11-20T10:33:25;23.92;;;11.30;;
35693;SDS011;21812;55.536;37.664;2022-11-20T10:35:57;21.35;;;11.30;;
35693;SDS011;21812;55.536;37.664;2022-11-20T10:38:54;19.77;;;11.52;;
35693;SDS011;21812;55.536;37.664;2022-11-20T10:41:51;25.42;;;11.40;;
35693;SDS011;21812;55.536;37.664;2022-11-20T10:44:24;18.58;;;10.65;;
35693;SDS011;21812;55.536;37.664;2022-11-20T10:47:14;21.23;;;11.77;;
35693;SDS011;21812;55.536;37.664;2022-11-20T10:49:42;12.98;;;7.53;;
35693;SDS011;21812;55.536;37.664;2022-11-20T10:57:41;17.80;;;8.05;;
35693;SDS011;21812;55.536;37.664;2022-11-20T11:00:18;11.88;;;7.05;;
35693;SDS011;21812;55.536;37.664;2022-11-20T11:02:47;14.85;;;7.05;;
35693;SDS011;21812;55.536;37.664;2022-11-20T11:08:15;12.23;;;7.30;;
35693;SDS011;21812;55.536;37.664;2022-11-20T11:13:32;13.73;;;7.15;;
35693;SDS011;21812;55.536;37.664;2022-11-20T11:15:58;13.35;;;7.78;;
35693;SDS011;21812;55.536;37.664;2022-11-20T11:18:30;13.45;;;8.15;;
35693;SDS011;21812;55.536;37.664;2022-11-20T11:21:00;10.23;;;6.35;;
35693;SDS011;21812;55.536;37.664;2022-11-20T11:23:32;12.73;;;7.45;;
35693;SDS011;21812;55.536;37.664;2022-11-20T11:26:02;12.68;;;7.40;;
35693;SDS011;21812;55.536;37.664;2022-11-20T11:28:30;12.05;;;7.40;;
35693;SDS011;21812;55.536;37.664;2022-11-20T11:30:56;14.50;;;8.20;;
35693;SDS011;21812;55.536;37.664;2022-11-20T11:35:52;13.23;;;7.15;;
35693;SDS011;21812;55.536;37.664;2022-11-20T11:38:27;14.30;;;7.88;;
35693;SDS011;21812;55.536;37.664;2022-11-20T11:41:01;12.57;;;7.53;;
35693;SDS011;21812;55.536;37.664;2022-11-20T11:43:29;17.10;;;8.80;;
35693;SDS011;21812;55.536;37.664;2022-11-20T11:46:25;15.60;;;10.40;;
35693;SDS011;21812;55.536;37.664;2022-11-20T11:48:58;14.90;;;8.65;;
35693;SDS011;21812;55.536;37.664;2022-11-20T11:51:38;21.92;;;11.70;;
35693;SDS011;21812;55.536;37.664;2022-11-20T11:54:20;36.38;;;18.33;;
35693;SDS011;21812;55.536;37.664;2022-11-20T11:56:58;25.95;;;12.55;;
35693;SDS011;21812;55.536;37.664;2022-11-20T11:59:27;13.40;;;8.45;;
35693;SDS011;21812;55.536;37.664;2022-11-20T12:01:59;13.68;;;9.35;;
35693;SDS011;21812;55.536;37.664;2022-11-20T12:07:19;11.07;;;6.57;;
35693;SDS011;21812;55.536;37.664;2022-11-20T12:09:54;12.20;;;7.65;;
35693;SDS011;21812;55.536;37.664;2022-11-20T12:15:28;18.17;;;10.90;;
35693;SDS011;21812;55.536;37.664;2022-11-20T12:17:55;20.30;;;10.52;;
35693;SDS011;21812;55.536;37.664;2022-11-20T12:20:22;14.40;;;8.88;;
35693;SDS011;21812;55.536;37.664;2022-11-20T12:25:31;11.98;;;6.95;;
35693;SDS011;21812;55.536;37.664;2022-11-20T12:28:04;13.18;;;8.40;;
35693;SDS011;21812;55.536;37.664;2022-11-20T12:31:13;14.80;;;8.35;;
35693;SDS011;21812;55.536;37.664;2022-11-20T12:33:54;15.68;;;9.13;;
35693;SDS011;21812;55.536;37.664;2022-11-20T12:36:52;13.75;;;8.63;;
35693;SDS011;21812;55.536;37.664;2022-11-20T12:39:43;15.48;;;8.27;;
35693;SDS011;21812;55.536;37.664;2022-11-20T12:50:49;12.33;;;7.17;;
35693;SDS011;21812;55.536;37.664;2022-11-20T13:07:13;24.75;;;12.32;;
35693;SDS011;21812;55.536;37.664;2022-11-20T13:09:48;19.02;;;10.80;;
35693;SDS011;21812;55.536;37.664;2022-11-20T13:14:52;24.00;;;10.35;;
35693;SDS011;21812;55.536;37.664;2022-11-20T13:20:19;19.55;;;10.75;;
35693;SDS011;21812;55.536;37.664;2022-11-20T13:22:46;53.77;;;24.83;;
35693;SDS011;21812;55.536;37.664;2022-11-20T13:27:57;36.25;;;14.20;;
35693;SDS011;21812;55.536;37.664;2022-11-20T13:30:25;18.50;;;9.00;;
35693;SDS011;21812;55.536;37.664;2022-11-20T13:33:09;16.87;;;10.23;;
35693;SDS011;21812;55.536;37.664;2022-11-20T13:35:57;13.15;;;8.63;;
35693;SDS011;21812;55.536;37.664;2022-11-20T13:38:44;18.93;;;11.20;;
35693;SDS011;21812;55.536;37.664;2022-11-20T13:41:23;20.58;;;11.15;;
35693;SDS011;21812;55.536;37.664;2022-11-20T13:46:37;23.67;;;13.03;;
35693;SDS011;21812;55.536;37.664;2022-11-20T14:00:14;15.55;;;9.50;;
35693;SDS011;21812;55.536;37.664;2022-11-20T14:02:42;11.70;;;8.27;;
35693;SDS011;21812;55.536;37.664;2022-11-20T14:05:15;16.13;;;10.53;;
35693;SDS011;21812;55.536;37.664;2022-11-20T14:07:46;16.47;;;10.43;;
35693;SDS011;21812;55.536;37.664;2022-11-20T14:10:26;19.65;;;12.05;;
35693;SDS011;21812;55.536;37.664;2022-11-20T14:12:54;17.15;;;10.75;;
35693;SDS011;21812;55.536;37.664;2022-11-20T14:15:38;15.85;;;9.48;;
35693;SDS011;21812;55.536;37.664;2022-11-20T14:18:12;14.35;;;8.85;;
35693;SDS011;21812;55.536;37.664;2022-11-20T14:20:42;23.58;;;13.40;;
35693;SDS011;21812;55.536;37.664;2022-11-20T14:23:09;17.88;;;11.55;;
35693;SDS011;21812;55.536;37.664;2022-11-20T14:25:36;20.83;;;13.20;;
35693;SDS011;21812;55.536;37.664;2022-11-20T14:28:02;24.98;;;14.50;;
35693;SDS011;21812;55.536;37.664;2022-11-20T14:30:36;22.15;;;11.82;;
35693;SDS011;21812;55.536;37.664;2022-11-20T14:33:09;20.90;;;10.48;;
35693;SDS011;21812;55.536;37.664;2022-11-20T14:35:40;22.42;;;13.10;;
35693;SDS011;21812;55.536;37.664;2022-11-20T14:38:11;21.63;;;11.25;;
35693;SDS011;21812;55.536;37.664;2022-11-20T14:40:38;21.05;;;12.40;;
35693;SDS011;21812;55.536;37.664;2022-11-20T14:43:21;25.88;;;14.15;;
35693;SDS011;21812;55.536;37.664;2022-11-20T14:48:22;18.08;;;9.73;;
35693;SDS011;21812;55.536;37.664;2022-11-20T14:50:53;13.15;;;8.90;;
35693;SDS011;21812;55.536;37.664;2022-11-20T14:53:22;14.02;;;8.73;;
35693;SDS011;21812;55.536;37.664;2022-11-20T14:55:54;12.52;;;8.68;;
35693;SDS011;21812;55.536;37.664;2022-11-20T14:58:22;17.23;;;11.73;;
35693;SDS011;21812;55.536;37.664;2022-11-20T15:01:00;22.95;;;10.35;;
35693;SDS011;21812;55.536;37.664;2022-11-20T15:03:32;24.33;;;13.25;;
35693;SDS011;21812;55.536;37.664;2022-11-20T15:06:05;28.45;;;14.80;;
35693;SDS011;21812;55.536;37.664;2022-11-20T15:08:33;57.38;;;22.35;;
35693;SDS011;21812;55.536;37.664;2022-11-20T15:10:59;26.50;;;13.30;;
35693;SDS011;21812;55.536;37.664;2022-11-20T15:13:36;24.38;;;13.75;;
35693;SDS011;21812;55.536;37.664;2022-11-20T15:16:04;19.17;;;10.23;;
35693;SDS011;21812;55.536;37.664;2022-11-20T15:18:41;22.48;;;11.35;;
35693;SDS011;21812;55.536;37.664;2022-11-20T15:21:11;19.17;;;10.70;;
35693;SDS011;21812;55.536;37.664;2022-11-20T15:23:39;17.00;;;9.77;;
35693;SDS011;21812;55.536;37.664;2022-11-20T15:26:05;15.63;;;8.98;;
35693;SDS011;21812;55.536;37.664;2022-11-20T15:28:50;29.30;;;15.90;;
35693;SDS011;21812;55.536;37.664;2022-11-20T15:31:18;15.98;;;10.23;;
35693;SDS011;21812;55.536;37.664;2022-11-20T15:33:46;17.52;;;10.45;;
35693;SDS011;21812;55.536;37.664;2022-11-20T15:36:12;16.52;;;9.00;;
35693;SDS011;21812;55.536;37.664;2022-11-20T15:38:38;14.77;;;8.15;;
35693;SDS011;21812;55.536;37.664;2022-11-20T15:41:04;15.07;;;10.30;;
35693;SDS011;21812;55.536;37.664;2022-11-20T15:43:30;17.90;;;11.60;;
35693;SDS011;21812;55.536;37.664;2022-11-20T15:45:56;19.15;;;9.15;;
35693;SDS011;21812;55.536;37.664;2022-11-20T15:48:26;18.77;;;10.27;;
35693;SDS011;21812;55.536;37.664;2022-11-20T15:50:58;16.73;;;9.20;;
35693;SDS011;21812;55.536;37.664;2022-11-20T15:53:28;14.30;;;8.98;;
35693;SDS011;21812;55.536;37.664;2022-11-20T15:55:53;19.35;;;8.93;;
35693;SDS011;21812;55.536;37.664;2022-11-20T15:58:19;14.85;;;9.32;;
35693;SDS011;21812;55.536;37.664;2022-11-20T16:00:49;13.85;;;8.55;;
35693;SDS011;21812;55.536;37.664;2022-11-20T16:03:15;13.27;;;8.40;;
35693;SDS011;21812;55.536;37.664;2022-11-20T16:05:42;16.42;;;9.35;;
35693;SDS011;21812;55.536;37.664;2022-11-20T16:08:08;11.23;;;8.20;;
35693;SDS011;21812;55.536;37.664;2022-11-20T16:10:34;13.48;;;9.02;;
35693;SDS011;21812;55.536;37.664;2022-11-20T16:13:00;18.23;;;8.82;;
35693;SDS011;21812;55.536;37.664;2022-11-20T16:15:46;19.23;;;10.75;;
35693;SDS011;21812;55.536;37.664;2022-11-20T16:18:18;15.25;;;9.45;;